sensor_id;sensor_type;location;lat;lon;timestamp;P1;durP1;ratioP1;P2;durP2;ratioP2
67162;SDS011;54092;53.088;8.850;2024-02-26T00:01:40;14.70;;;7.30;;
67162;SDS011;54092;53.088;8.850;2024-02-26T00:04:06;14.02;;;7.38;;
67162;SDS011;54092;53.088;8.850;2024-02-26T00:06:31;13.65;;;7.05;;
67162;SDS011;54092;53.088;8.850;2024-02-26T00:08:57;14.63;;;7.40;;
67162;SDS011;54092;53.088;8.850;2024-02-26T00:11:23;14.98;;;7.95;;
67162;SDS011;54092;53.088;8.850;2024-02-26T00:13:48;13.90;;;7.15;;
67162;SDS011;54092;53.088;8.850;2024-02-26T00:16:14;12.98;;;7.05;;
67162;SDS011;54092;53.088;8.850;2024-02-26T00:18:39;13.55;;;6.88;;
67162;SDS011;54092;53.088;8.850;2024-02-26T00:21:05;13.93;;;7.65;;
67162;SDS011;54092;53.088;8.850;2024-02-26T00:23:30;12.73;;;7.03;;
67162;SDS011;54092;53.088;8.850;2024-02-26T00:25:56;13.50;;;6.40;;
67162;SDS011;54092;53.088;8.850;2024-02-26T00:28:21;15.20;;;7.55;;
67162;SDS011;54092;53.088;8.850;2024-02-26T00:30:47;10.75;;;5.95;;
67162;SDS011;54092;53.088;8.850;2024-02-26T00:33:14;13.13;;;7.72;;
67162;SDS011;54092;53.088;8.850;2024-02-26T00:35:41;13.55;;;7.28;;
67162;SDS011;54092;53.088;8.850;2024-02-26T00:38:07;13.00;;;7.05;;
67162;SDS011;54092;53.088;8.850;2024-02-26T00:40:32;14.05;;;7.03;;
67162;SDS011;54092;53.088;8.850;2024-02-26T00:42:59;11.45;;;6.28;;
67162;SDS011;54092;53.088;8.850;2024-02-26T00:45:24;13.15;;;7.13;;
67162;SDS011;54092;53.088;8.850;2024-02-26T00:47:50;12.85;;;7.10;;
67162;SDS011;54092;53.088;8.850;2024-02-26T00:50:15;12.63;;;7.45;;
67162;SDS011;54092;53.088;8.850;2024-02-26T00:52:41;13.30;;;7.13;;
67162;SDS011;54092;53.088;8.850;2024-02-26T00:55:07;11.60;;;7.13;;
67162;SDS011;54092;53.088;8.850;2024-02-26T00:57:33;13.13;;;7.10;;
67162;SDS011;54092;53.088;8.850;2024-02-26T00:59:58;14.45;;;6.93;;
67162;SDS011;54092;53.088;8.850;2024-02-26T01:02:24;11.52;;;6.90;;
67162;SDS011;54092;53.088;8.850;2024-02-26T01:04:50;13.73;;;6.95;;
67162;SDS011;54092;53.088;8.850;2024-02-26T01:07:15;14.00;;;7.30;;
67162;SDS011;54092;53.088;8.850;2024-02-26T01:09:41;10.93;;;6.47;;
67162;SDS011;54092;53.088;8.850;2024-02-26T01:12:07;13.23;;;7.38;;
67162;SDS011;54092;53.088;8.850;2024-02-26T01:14:33;12.20;;;6.95;;
67162;SDS011;54092;53.088;8.850;2024-02-26T01:16:59;13.38;;;6.70;;
67162;SDS011;54092;53.088;8.850;2024-02-26T01:19:24;14.85;;;7.55;;
67162;SDS011;54092;53.088;8.850;2024-02-26T01:21:50;13.35;;;6.85;;
67162;SDS011;54092;53.088;8.850;2024-02-26T01:24:15;14.88;;;7.75;;
67162;SDS011;54092;53.088;8.850;2024-02-26T01:26:41;15.85;;;7.60;;
67162;SDS011;54092;53.088;8.850;2024-02-26T01:29:07;14.02;;;7.53;;
67162;SDS011;54092;53.088;8.850;2024-02-26T01:31:32;11.98;;;7.07;;
67162;SDS011;54092;53.088;8.850;2024-02-26T01:33:58;11.60;;;6.75;;
67162;SDS011;54092;53.088;8.850;2024-02-26T01:36:23;12.65;;;7.28;;
67162;SDS011;54092;53.088;8.850;2024-02-26T01:38:49;12.27;;;7.43;;
67162;SDS011;54092;53.088;8.850;2024-02-26T01:41:14;11.95;;;6.90;;
67162;SDS011;54092;53.088;8.850;2024-02-26T01:43:40;12.73;;;6.78;;
67162;SDS011;54092;53.088;8.850;2024-02-26T01:46:06;13.05;;;6.43;;
67162;SDS011;54092;53.088;8.850;2024-02-26T01:48:36;13.82;;;7.50;;
67162;SDS011;54092;53.088;8.850;2024-02-26T01:51:01;13.88;;;6.88;;
67162;SDS011;54092;53.088;8.850;2024-02-26T01:53:27;12.98;;;6.97;;
67162;SDS011;54092;53.088;8.850;2024-02-26T01:55:53;12.90;;;6.50;;
67162;SDS011;54092;53.088;8.850;2024-02-26T01:58:18;11.90;;;6.75;;
67162;SDS011;54092;53.088;8.850;2024-02-26T02:00:45;12.75;;;7.30;;
67162;SDS011;54092;53.088;8.850;2024-02-26T02:03:10;11.98;;;6.72;;
67162;SDS011;54092;53.088;8.850;2024-02-26T02:05:36;11.80;;;7.00;;
67162;SDS011;54092;53.088;8.850;2024-02-26T02:08:06;12.88;;;6.95;;
67162;SDS011;54092;53.088;8.850;2024-02-26T02:10:32;13.13;;;6.72;;
67162;SDS011;54092;53.088;8.850;2024-02-26T02:12:58;13.13;;;6.40;;
67162;SDS011;54092;53.088;8.850;2024-02-26T02:15:24;10.80;;;6.28;;
67162;SDS011;54092;53.088;8.850;2024-02-26T02:17:50;11.48;;;6.22;;
67162;SDS011;54092;53.088;8.850;2024-02-26T02:20:16;11.80;;;6.20;;
67162;SDS011;54092;53.088;8.850;2024-02-26T02:22:43;12.20;;;6.38;;
67162;SDS011;54092;53.088;8.850;2024-02-26T02:25:12;11.15;;;6.20;;
67162;SDS011;54092;53.088;8.850;2024-02-26T02:27:37;13.10;;;6.72;;
67162;SDS011;54092;53.088;8.850;2024-02-26T02:30:04;11.90;;;6.05;;
67162;SDS011;54092;53.088;8.850;2024-02-26T02:32:31;12.55;;;6.82;;
67162;SDS011;54092;53.088;8.850;2024-02-26T02:34:57;14.50;;;6.93;;
67162;SDS011;54092;53.088;8.850;2024-02-26T02:37:23;12.15;;;6.60;;
67162;SDS011;54092;53.088;8.850;2024-02-26T02:39:48;12.93;;;6.65;;
67162;SDS011;54092;53.088;8.850;2024-02-26T02:42:14;11.13;;;6.25;;
67162;SDS011;54092;53.088;8.850;2024-02-26T02:44:40;15.38;;;7.25;;
67162;SDS011;54092;53.088;8.850;2024-02-26T02:47:05;11.95;;;6.28;;
67162;SDS011;54092;53.088;8.850;2024-02-26T02:49:31;10.35;;;5.90;;
67162;SDS011;54092;53.088;8.850;2024-02-26T02:51:56;13.32;;;7.18;;
67162;SDS011;54092;53.088;8.850;2024-02-26T02:54:22;13.25;;;7.25;;
67162;SDS011;54092;53.088;8.850;2024-02-26T02:56:48;11.68;;;6.80;;
67162;SDS011;54092;53.088;8.850;2024-02-26T02:59:13;12.95;;;6.85;;
67162;SDS011;54092;53.088;8.850;2024-02-26T03:01:39;12.52;;;6.57;;
67162;SDS011;54092;53.088;8.850;2024-02-26T03:04:05;14.13;;;6.68;;
67162;SDS011;54092;53.088;8.850;2024-02-26T03:06:30;11.00;;;6.22;;
67162;SDS011;54092;53.088;8.850;2024-02-26T03:08:55;12.25;;;6.60;;
67162;SDS011;54092;53.088;8.850;2024-02-26T03:11:21;12.80;;;6.72;;
67162;SDS011;54092;53.088;8.850;2024-02-26T03:13:46;13.35;;;6.68;;
67162;SDS011;54092;53.088;8.850;2024-02-26T03:16:12;13.10;;;7.22;;
67162;SDS011;54092;53.088;8.850;2024-02-26T03:18:41;12.95;;;7.22;;
67162;SDS011;54092;53.088;8.850;2024-02-26T03:21:06;13.07;;;6.65;;
67162;SDS011;54092;53.088;8.850;2024-02-26T03:23:32;12.45;;;6.68;;
67162;SDS011;54092;53.088;8.850;2024-02-26T03:26:01;12.60;;;6.78;;
67162;SDS011;54092;53.088;8.850;2024-02-26T03:28:29;15.13;;;7.22;;
67162;SDS011;54092;53.088;8.850;2024-02-26T03:30:58;13.07;;;6.40;;
67162;SDS011;54092;53.088;8.850;2024-02-26T03:33:23;13.77;;;7.15;;
67162;SDS011;54092;53.088;8.850;2024-02-26T03:35:49;12.95;;;6.93;;
67162;SDS011;54092;53.088;8.850;2024-02-26T03:38:14;15.30;;;8.05;;
67162;SDS011;54092;53.088;8.850;2024-02-26T03:40:40;16.05;;;8.20;;
67162;SDS011;54092;53.088;8.850;2024-02-26T03:43:05;13.88;;;7.35;;
67162;SDS011;54092;53.088;8.850;2024-02-26T03:45:32;14.05;;;7.97;;
67162;SDS011;54092;53.088;8.850;2024-02-26T03:47:58;14.93;;;7.38;;
67162;SDS011;54092;53.088;8.850;2024-02-26T03:50:23;15.60;;;7.80;;
67162;SDS011;54092;53.088;8.850;2024-02-26T03:52:49;17.05;;;7.70;;
67162;SDS011;54092;53.088;8.850;2024-02-26T03:55:14;14.63;;;7.45;;
67162;SDS011;54092;53.088;8.850;2024-02-26T03:57:40;12.30;;;6.68;;
67162;SDS011;54092;53.088;8.850;2024-02-26T04:00:06;14.88;;;6.93;;
67162;SDS011;54092;53.088;8.850;2024-02-26T04:02:32;13.80;;;7.82;;
67162;SDS011;54092;53.088;8.850;2024-02-26T04:04:57;15.82;;;7.78;;
67162;SDS011;54092;53.088;8.850;2024-02-26T04:07:24;14.07;;;6.97;;
67162;SDS011;54092;53.088;8.850;2024-02-26T04:09:49;14.23;;;7.07;;
67162;SDS011;54092;53.088;8.850;2024-02-26T04:12:15;14.13;;;6.90;;
67162;SDS011;54092;53.088;8.850;2024-02-26T04:14:40;14.65;;;7.45;;
67162;SDS011;54092;53.088;8.850;2024-02-26T04:17:06;15.25;;;6.72;;
67162;SDS011;54092;53.088;8.850;2024-02-26T04:19:31;14.50;;;7.15;;
67162;SDS011;54092;53.088;8.850;2024-02-26T04:21:57;14.57;;;7.60;;
67162;SDS011;54092;53.088;8.850;2024-02-26T04:24:22;16.25;;;7.45;;
67162;SDS011;54092;53.088;8.850;2024-02-26T04:26:48;14.95;;;7.35;;
67162;SDS011;54092;53.088;8.850;2024-02-26T04:29:14;13.27;;;6.93;;
67162;SDS011;54092;53.088;8.850;2024-02-26T04:31:40;14.18;;;7.00;;
67162;SDS011;54092;53.088;8.850;2024-02-26T04:34:07;13.90;;;6.63;;
67162;SDS011;54092;53.088;8.850;2024-02-26T04:36:33;14.02;;;6.95;;
67162;SDS011;54092;53.088;8.850;2024-02-26T04:38:59;16.35;;;7.70;;
67162;SDS011;54092;53.088;8.850;2024-02-26T04:41:24;14.85;;;7.68;;
67162;SDS011;54092;53.088;8.850;2024-02-26T04:43:49;13.05;;;7.03;;
67162;SDS011;54092;53.088;8.850;2024-02-26T04:46:15;14.73;;;7.80;;
67162;SDS011;54092;53.088;8.850;2024-02-26T04:48:40;15.57;;;7.65;;
67162;SDS011;54092;53.088;8.850;2024-02-26T04:51:11;14.73;;;7.32;;
67162;SDS011;54092;53.088;8.850;2024-02-26T04:53:37;15.30;;;7.53;;
67162;SDS011;54092;53.088;8.850;2024-02-26T04:56:02;18.60;;;7.88;;
67162;SDS011;54092;53.088;8.850;2024-02-26T04:58:28;14.00;;;7.80;;
67162;SDS011;54092;53.088;8.850;2024-02-26T05:00:53;15.85;;;7.20;;
67162;SDS011;54092;53.088;8.850;2024-02-26T05:03:19;16.30;;;7.95;;
67162;SDS011;54092;53.088;8.850;2024-02-26T05:05:45;16.67;;;8.13;;
67162;SDS011;54092;53.088;8.850;2024-02-26T05:08:10;16.80;;;7.90;;
67162;SDS011;54092;53.088;8.850;2024-02-26T05:10:39;15.20;;;7.97;;
67162;SDS011;54092;53.088;8.850;2024-02-26T05:13:08;14.38;;;7.32;;
67162;SDS011;54092;53.088;8.850;2024-02-26T05:15:34;15.75;;;7.65;;
67162;SDS011;54092;53.088;8.850;2024-02-26T05:18:01;15.82;;;7.20;;
67162;SDS011;54092;53.088;8.850;2024-02-26T05:20:27;16.00;;;7.80;;
67162;SDS011;54092;53.088;8.850;2024-02-26T05:22:53;15.55;;;7.57;;
67162;SDS011;54092;53.088;8.850;2024-02-26T05:25:18;16.45;;;8.10;;
67162;SDS011;54092;53.088;8.850;2024-02-26T05:27:44;15.27;;;7.65;;
67162;SDS011;54092;53.088;8.850;2024-02-26T05:30:10;16.05;;;7.32;;
67162;SDS011;54092;53.088;8.850;2024-02-26T05:32:36;13.90;;;6.97;;
67162;SDS011;54092;53.088;8.850;2024-02-26T05:35:01;13.98;;;7.75;;
67162;SDS011;54092;53.088;8.850;2024-02-26T05:37:30;13.27;;;6.87;;
67162;SDS011;54092;53.088;8.850;2024-02-26T05:39:56;15.25;;;7.47;;
67162;SDS011;54092;53.088;8.850;2024-02-26T05:42:21;13.48;;;6.43;;
67162;SDS011;54092;53.088;8.850;2024-02-26T05:44:47;14.57;;;7.10;;
67162;SDS011;54092;53.088;8.850;2024-02-26T05:47:12;16.17;;;7.40;;
67162;SDS011;54092;53.088;8.850;2024-02-26T05:49:42;14.93;;;7.95;;
67162;SDS011;54092;53.088;8.850;2024-02-26T05:52:07;18.85;;;8.30;;
67162;SDS011;54092;53.088;8.850;2024-02-26T05:54:33;17.02;;;8.88;;
67162;SDS011;54092;53.088;8.850;2024-02-26T05:56:58;17.58;;;8.10;;
67162;SDS011;54092;53.088;8.850;2024-02-26T05:59:24;18.02;;;8.43;;
67162;SDS011;54092;53.088;8.850;2024-02-26T06:01:50;17.95;;;8.00;;
67162;SDS011;54092;53.088;8.850;2024-02-26T06:04:16;22.27;;;9.38;;
67162;SDS011;54092;53.088;8.850;2024-02-26T06:06:43;18.02;;;8.65;;
67162;SDS011;54092;53.088;8.850;2024-02-26T06:09:10;17.77;;;9.07;;
67162;SDS011;54092;53.088;8.850;2024-02-26T06:11:36;20.40;;;9.55;;
67162;SDS011;54092;53.088;8.850;2024-02-26T06:14:02;20.52;;;9.75;;
67162;SDS011;54092;53.088;8.850;2024-02-26T06:16:28;22.35;;;9.23;;
67162;SDS011;54092;53.088;8.850;2024-02-26T06:18:53;19.75;;;9.82;;
67162;SDS011;54092;53.088;8.850;2024-02-26T06:21:19;21.83;;;10.18;;
67162;SDS011;54092;53.088;8.850;2024-02-26T06:23:44;24.23;;;10.40;;
67162;SDS011;54092;53.088;8.850;2024-02-26T06:26:10;22.75;;;10.15;;
67162;SDS011;54092;53.088;8.850;2024-02-26T06:28:35;25.40;;;10.32;;
67162;SDS011;54092;53.088;8.850;2024-02-26T06:31:01;25.35;;;11.27;;
67162;SDS011;54092;53.088;8.850;2024-02-26T06:33:27;27.42;;;10.85;;
67162;SDS011;54092;53.088;8.850;2024-02-26T06:35:53;24.95;;;10.73;;
67162;SDS011;54092;53.088;8.850;2024-02-26T06:38:18;24.00;;;10.93;;
67162;SDS011;54092;53.088;8.850;2024-02-26T06:40:44;26.00;;;11.10;;
67162;SDS011;54092;53.088;8.850;2024-02-26T06:43:09;24.33;;;10.65;;
67162;SDS011;54092;53.088;8.850;2024-02-26T06:45:35;23.60;;;10.10;;
67162;SDS011;54092;53.088;8.850;2024-02-26T06:48:00;24.17;;;9.50;;
67162;SDS011;54092;53.088;8.850;2024-02-26T06:50:27;24.90;;;10.75;;
67162;SDS011;54092;53.088;8.850;2024-02-26T06:52:53;26.17;;;11.30;;
67162;SDS011;54092;53.088;8.850;2024-02-26T06:55:18;26.88;;;10.77;;
67162;SDS011;54092;53.088;8.850;2024-02-26T06:57:43;27.27;;;11.40;;
67162;SDS011;54092;53.088;8.850;2024-02-26T07:00:09;27.58;;;12.23;;
67162;SDS011;54092;53.088;8.850;2024-02-26T07:02:39;28.52;;;11.10;;
67162;SDS011;54092;53.088;8.850;2024-02-26T07:05:05;25.58;;;10.43;;
67162;SDS011;54092;53.088;8.850;2024-02-26T07:07:31;26.17;;;11.20;;
67162;SDS011;54092;53.088;8.850;2024-02-26T07:09:56;25.13;;;10.27;;
67162;SDS011;54092;53.088;8.850;2024-02-26T07:12:22;29.25;;;11.80;;
67162;SDS011;54092;53.088;8.850;2024-02-26T07:14:49;31.08;;;12.05;;
67162;SDS011;54092;53.088;8.850;2024-02-26T07:17:15;25.95;;;11.23;;
67162;SDS011;54092;53.088;8.850;2024-02-26T07:19:41;23.17;;;10.60;;
67162;SDS011;54092;53.088;8.850;2024-02-26T07:22:07;26.05;;;11.38;;
67162;SDS011;54092;53.088;8.850;2024-02-26T07:24:32;27.27;;;11.38;;
67162;SDS011;54092;53.088;8.850;2024-02-26T07:26:58;25.75;;;12.25;;
67162;SDS011;54092;53.088;8.850;2024-02-26T07:29:23;28.10;;;11.85;;
67162;SDS011;54092;53.088;8.850;2024-02-26T07:31:49;23.77;;;11.07;;
67162;SDS011;54092;53.088;8.850;2024-02-26T07:34:14;31.08;;;11.98;;
67162;SDS011;54092;53.088;8.850;2024-02-26T07:36:40;27.90;;;12.02;;
67162;SDS011;54092;53.088;8.850;2024-02-26T07:39:05;31.50;;;11.75;;
67162;SDS011;54092;53.088;8.850;2024-02-26T07:41:31;26.90;;;12.05;;
67162;SDS011;54092;53.088;8.850;2024-02-26T07:43:56;33.25;;;12.95;;
67162;SDS011;54092;53.088;8.850;2024-02-26T07:46:22;28.05;;;12.27;;
67162;SDS011;54092;53.088;8.850;2024-02-26T07:48:47;29.05;;;11.93;;
67162;SDS011;54092;53.088;8.850;2024-02-26T07:51:13;29.48;;;12.55;;
67162;SDS011;54092;53.088;8.850;2024-02-26T07:53:39;30.75;;;12.48;;
67162;SDS011;54092;53.088;8.850;2024-02-26T07:56:05;25.25;;;12.07;;
67162;SDS011;54092;53.088;8.850;2024-02-26T07:58:32;27.90;;;11.38;;
67162;SDS011;54092;53.088;8.850;2024-02-26T08:00:58;31.15;;;11.52;;
67162;SDS011;54092;53.088;8.850;2024-02-26T08:03:23;28.52;;;12.50;;
67162;SDS011;54092;53.088;8.850;2024-02-26T08:05:49;28.98;;;12.57;;
67162;SDS011;54092;53.088;8.850;2024-02-26T08:08:15;27.83;;;12.43;;
67162;SDS011;54092;53.088;8.850;2024-02-26T08:10:41;32.70;;;13.10;;
67162;SDS011;54092;53.088;8.850;2024-02-26T08:13:06;28.42;;;11.90;;
67162;SDS011;54092;53.088;8.850;2024-02-26T08:15:32;29.80;;;12.77;;
67162;SDS011;54092;53.088;8.850;2024-02-26T08:17:59;31.77;;;13.25;;
67162;SDS011;54092;53.088;8.850;2024-02-26T08:20:27;28.38;;;13.27;;
67162;SDS011;54092;53.088;8.850;2024-02-26T08:22:53;29.52;;;13.07;;
67162;SDS011;54092;53.088;8.850;2024-02-26T08:25:18;26.83;;;11.70;;
67162;SDS011;54092;53.088;8.850;2024-02-26T08:27:44;27.33;;;11.70;;
67162;SDS011;54092;53.088;8.850;2024-02-26T08:30:09;27.92;;;11.38;;
67162;SDS011;54092;53.088;8.850;2024-02-26T08:32:38;33.67;;;13.27;;
67162;SDS011;54092;53.088;8.850;2024-02-26T08:35:04;29.95;;;11.48;;
67162;SDS011;54092;53.088;8.850;2024-02-26T08:37:29;27.70;;;11.57;;
67162;SDS011;54092;53.088;8.850;2024-02-26T08:39:55;30.67;;;12.60;;
67162;SDS011;54092;53.088;8.850;2024-02-26T08:42:21;26.15;;;11.35;;
67162;SDS011;54092;53.088;8.850;2024-02-26T08:44:49;28.08;;;12.05;;
67162;SDS011;54092;53.088;8.850;2024-02-26T08:47:14;25.92;;;11.50;;
67162;SDS011;54092;53.088;8.850;2024-02-26T08:49:44;29.88;;;11.55;;
67162;SDS011;54092;53.088;8.850;2024-02-26T08:52:10;30.27;;;12.48;;
67162;SDS011;54092;53.088;8.850;2024-02-26T08:54:35;26.75;;;12.45;;
67162;SDS011;54092;53.088;8.850;2024-02-26T08:57:01;30.58;;;13.55;;
67162;SDS011;54092;53.088;8.850;2024-02-26T08:59:27;28.08;;;12.93;;
67162;SDS011;54092;53.088;8.850;2024-02-26T09:01:53;30.75;;;12.70;;
67162;SDS011;54092;53.088;8.850;2024-02-26T09:04:18;31.30;;;12.25;;
67162;SDS011;54092;53.088;8.850;2024-02-26T09:06:44;30.50;;;13.20;;
67162;SDS011;54092;53.088;8.850;2024-02-26T09:09:10;26.58;;;11.50;;
67162;SDS011;54092;53.088;8.850;2024-02-26T09:11:36;28.88;;;13.23;;
67162;SDS011;54092;53.088;8.850;2024-02-26T09:14:01;28.17;;;11.65;;
67162;SDS011;54092;53.088;8.850;2024-02-26T09:16:28;27.27;;;11.70;;
67162;SDS011;54092;53.088;8.850;2024-02-26T09:18:54;28.05;;;11.80;;
67162;SDS011;54092;53.088;8.850;2024-02-26T09:21:19;27.70;;;12.10;;
67162;SDS011;54092;53.088;8.850;2024-02-26T09:23:48;28.98;;;11.57;;
67162;SDS011;54092;53.088;8.850;2024-02-26T09:26:14;24.02;;;11.32;;
67162;SDS011;54092;53.088;8.850;2024-02-26T09:28:40;24.77;;;11.00;;
67162;SDS011;54092;53.088;8.850;2024-02-26T09:31:05;26.17;;;11.82;;
67162;SDS011;54092;53.088;8.850;2024-02-26T09:33:34;24.67;;;10.70;;
67162;SDS011;54092;53.088;8.850;2024-02-26T09:36:00;23.58;;;11.30;;
67162;SDS011;54092;53.088;8.850;2024-02-26T09:38:25;24.35;;;9.80;;
67162;SDS011;54092;53.088;8.850;2024-02-26T09:40:51;23.50;;;11.02;;
67162;SDS011;54092;53.088;8.850;2024-02-26T09:43:17;24.80;;;10.82;;
67162;SDS011;54092;53.088;8.850;2024-02-26T09:45:47;23.85;;;11.02;;
67162;SDS011;54092;53.088;8.850;2024-02-26T09:48:15;20.08;;;10.05;;
67162;SDS011;54092;53.088;8.850;2024-02-26T09:50:42;25.40;;;11.43;;
67162;SDS011;54092;53.088;8.850;2024-02-26T09:53:08;18.60;;;9.45;;
67162;SDS011;54092;53.088;8.850;2024-02-26T09:55:36;20.83;;;9.32;;
67162;SDS011;54092;53.088;8.850;2024-02-26T09:58:01;20.70;;;9.77;;
67162;SDS011;54092;53.088;8.850;2024-02-26T10:00:30;19.58;;;9.75;;
67162;SDS011;54092;53.088;8.850;2024-02-26T10:03:01;17.20;;;8.98;;
67162;SDS011;54092;53.088;8.850;2024-02-26T10:05:29;16.17;;;8.50;;
67162;SDS011;54092;53.088;8.850;2024-02-26T10:08:00;18.25;;;8.82;;
67162;SDS011;54092;53.088;8.850;2024-02-26T10:10:28;15.55;;;8.38;;
67162;SDS011;54092;53.088;8.850;2024-02-26T10:12:54;15.48;;;8.15;;
67162;SDS011;54092;53.088;8.850;2024-02-26T10:15:20;17.33;;;8.52;;
67162;SDS011;54092;53.088;8.850;2024-02-26T10:17:45;17.77;;;8.52;;
67162;SDS011;54092;53.088;8.850;2024-02-26T10:20:12;16.05;;;7.25;;
67162;SDS011;54092;53.088;8.850;2024-02-26T10:22:57;18.33;;;8.40;;
67162;SDS011;54092;53.088;8.850;2024-02-26T10:25:23;16.00;;;7.68;;
67162;SDS011;54092;53.088;8.850;2024-02-26T10:27:48;14.85;;;7.25;;
67162;SDS011;54092;53.088;8.850;2024-02-26T10:30:17;16.55;;;8.07;;
67162;SDS011;54092;53.088;8.850;2024-02-26T10:32:48;15.70;;;8.45;;
67162;SDS011;54092;53.088;8.850;2024-02-26T10:35:15;16.15;;;8.40;;
67162;SDS011;54092;53.088;8.850;2024-02-26T10:37:42;14.85;;;8.25;;
67162;SDS011;54092;53.088;8.850;2024-02-26T10:40:11;14.15;;;7.28;;
67162;SDS011;54092;53.088;8.850;2024-02-26T10:42:40;17.15;;;7.90;;
67162;SDS011;54092;53.088;8.850;2024-02-26T10:45:07;13.60;;;6.85;;
67162;SDS011;54092;53.088;8.850;2024-02-26T10:47:34;16.48;;;7.28;;
67162;SDS011;54092;53.088;8.850;2024-02-26T10:50:03;15.00;;;6.95;;
67162;SDS011;54092;53.088;8.850;2024-02-26T10:52:31;14.57;;;7.25;;
67162;SDS011;54092;53.088;8.850;2024-02-26T10:54:59;15.48;;;6.88;;
67162;SDS011;54092;53.088;8.850;2024-02-26T10:57:27;16.23;;;7.23;;
67162;SDS011;54092;53.088;8.850;2024-02-26T11:00:03;12.27;;;6.38;;
67162;SDS011;54092;53.088;8.850;2024-02-26T11:02:30;12.50;;;6.70;;
67162;SDS011;54092;53.088;8.850;2024-02-26T11:05:03;14.00;;;7.13;;
67162;SDS011;54092;53.088;8.850;2024-02-26T11:07:32;15.13;;;7.63;;
67162;SDS011;54092;53.088;8.850;2024-02-26T11:10:02;13.80;;;7.10;;
67162;SDS011;54092;53.088;8.850;2024-02-26T11:14:57;13.75;;;6.50;;
67162;SDS011;54092;53.088;8.850;2024-02-26T11:17:26;15.15;;;7.35;;
67162;SDS011;54092;53.088;8.850;2024-02-26T11:19:55;12.75;;;7.20;;
67162;SDS011;54092;53.088;8.850;2024-02-26T11:22:21;12.02;;;6.97;;
67162;SDS011;54092;53.088;8.850;2024-02-26T11:24:47;13.27;;;6.85;;
67162;SDS011;54092;53.088;8.850;2024-02-26T11:27:13;13.18;;;7.03;;
67162;SDS011;54092;53.088;8.850;2024-02-26T11:29:43;11.10;;;6.75;;
67162;SDS011;54092;53.088;8.850;2024-02-26T11:32:12;14.10;;;7.45;;
67162;SDS011;54092;53.088;8.850;2024-02-26T11:34:39;13.68;;;7.20;;
67162;SDS011;54092;53.088;8.850;2024-02-26T11:37:08;16.25;;;7.47;;
67162;SDS011;54092;53.088;8.850;2024-02-26T11:39:41;14.50;;;7.55;;
67162;SDS011;54092;53.088;8.850;2024-02-26T11:42:07;14.80;;;7.80;;
67162;SDS011;54092;53.088;8.850;2024-02-26T11:44:34;15.50;;;7.15;;
67162;SDS011;54092;53.088;8.850;2024-02-26T11:47:10;11.80;;;6.90;;
67162;SDS011;54092;53.088;8.850;2024-02-26T11:49:37;14.25;;;8.07;;
67162;SDS011;54092;53.088;8.850;2024-02-26T11:52:04;12.85;;;6.90;;
67162;SDS011;54092;53.088;8.850;2024-02-26T11:54:45;12.60;;;7.22;;
67162;SDS011;54092;53.088;8.850;2024-02-26T11:57:23;15.55;;;6.50;;
67162;SDS011;54092;53.088;8.850;2024-02-26T12:02:38;14.00;;;7.50;;
67162;SDS011;54092;53.088;8.850;2024-02-26T12:05:17;12.93;;;7.07;;
67162;SDS011;54092;53.088;8.850;2024-02-26T12:07:46;14.57;;;7.60;;
67162;SDS011;54092;53.088;8.850;2024-02-26T12:10:23;12.73;;;6.80;;
67162;SDS011;54092;53.088;8.850;2024-02-26T12:13:04;13.18;;;7.10;;
67162;SDS011;54092;53.088;8.850;2024-02-26T12:15:38;13.95;;;7.13;;
67162;SDS011;54092;53.088;8.850;2024-02-26T12:18:09;12.13;;;6.78;;
67162;SDS011;54092;53.088;8.850;2024-02-26T12:20:36;14.73;;;7.45;;
67162;SDS011;54092;53.088;8.850;2024-02-26T12:23:02;12.38;;;6.43;;
67162;SDS011;54092;53.088;8.850;2024-02-26T12:25:29;11.77;;;6.63;;
67162;SDS011;54092;53.088;8.850;2024-02-26T12:27:56;15.32;;;6.80;;
67162;SDS011;54092;53.088;8.850;2024-02-26T12:30:22;13.45;;;6.47;;
67162;SDS011;54092;53.088;8.850;2024-02-26T12:32:49;13.45;;;6.63;;
67162;SDS011;54092;53.088;8.850;2024-02-26T12:35:15;12.48;;;6.60;;
67162;SDS011;54092;53.088;8.850;2024-02-26T12:37:42;15.50;;;7.50;;
67162;SDS011;54092;53.088;8.850;2024-02-26T12:40:08;13.38;;;7.22;;
67162;SDS011;54092;53.088;8.850;2024-02-26T12:42:35;12.57;;;7.20;;
67162;SDS011;54092;53.088;8.850;2024-02-26T12:45:05;12.30;;;6.82;;
67162;SDS011;54092;53.088;8.850;2024-02-26T12:47:36;12.65;;;6.60;;
67162;SDS011;54092;53.088;8.850;2024-02-26T12:50:04;13.43;;;6.53;;
67162;SDS011;54092;53.088;8.850;2024-02-26T12:52:34;14.48;;;7.00;;
67162;SDS011;54092;53.088;8.850;2024-02-26T12:55:04;12.02;;;6.70;;
67162;SDS011;54092;53.088;8.850;2024-02-26T12:57:32;12.77;;;7.20;;
67162;SDS011;54092;53.088;8.850;2024-02-26T12:59:59;11.77;;;6.63;;
67162;SDS011;54092;53.088;8.850;2024-02-26T13:02:26;11.18;;;6.93;;
67162;SDS011;54092;53.088;8.850;2024-02-26T13:04:52;13.60;;;7.18;;
67162;SDS011;54092;53.088;8.850;2024-02-26T13:07:20;15.13;;;7.28;;
67162;SDS011;54092;53.088;8.850;2024-02-26T13:09:45;11.88;;;7.15;;
67162;SDS011;54092;53.088;8.850;2024-02-26T13:12:11;12.55;;;6.95;;
67162;SDS011;54092;53.088;8.850;2024-02-26T13:14:37;12.68;;;6.28;;
67162;SDS011;54092;53.088;8.850;2024-02-26T13:17:03;12.05;;;6.68;;
67162;SDS011;54092;53.088;8.850;2024-02-26T13:19:29;13.93;;;6.80;;
67162;SDS011;54092;53.088;8.850;2024-02-26T13:21:54;12.73;;;6.47;;
67162;SDS011;54092;53.088;8.850;2024-02-26T13:24:20;11.77;;;6.22;;
67162;SDS011;54092;53.088;8.850;2024-02-26T13:26:47;14.90;;;6.78;;
67162;SDS011;54092;53.088;8.850;2024-02-26T13:29:19;11.35;;;6.13;;
67162;SDS011;54092;53.088;8.850;2024-02-26T13:31:45;14.35;;;6.68;;
67162;SDS011;54092;53.088;8.850;2024-02-26T13:34:11;13.55;;;6.32;;
67162;SDS011;54092;53.088;8.850;2024-02-26T13:36:48;11.35;;;6.20;;
67162;SDS011;54092;53.088;8.850;2024-02-26T13:39:20;11.68;;;6.20;;
67162;SDS011;54092;53.088;8.850;2024-02-26T13:41:50;10.57;;;5.63;;
67162;SDS011;54092;53.088;8.850;2024-02-26T13:44:16;12.57;;;6.50;;
67162;SDS011;54092;53.088;8.850;2024-02-26T13:46:41;10.77;;;6.30;;
67162;SDS011;54092;53.088;8.850;2024-02-26T13:49:08;11.95;;;5.85;;
67162;SDS011;54092;53.088;8.850;2024-02-26T13:51:34;10.48;;;5.88;;
67162;SDS011;54092;53.088;8.850;2024-02-26T13:54:01;12.52;;;6.13;;
67162;SDS011;54092;53.088;8.850;2024-02-26T13:56:27;11.55;;;6.40;;
67162;SDS011;54092;53.088;8.850;2024-02-26T13:58:53;11.35;;;6.60;;
67162;SDS011;54092;53.088;8.850;2024-02-26T14:01:18;11.27;;;6.20;;
67162;SDS011;54092;53.088;8.850;2024-02-26T14:03:44;9.93;;;5.63;;
67162;SDS011;54092;53.088;8.850;2024-02-26T14:06:10;10.18;;;5.85;;
67162;SDS011;54092;53.088;8.850;2024-02-26T14:08:35;13.73;;;6.32;;
67162;SDS011;54092;53.088;8.850;2024-02-26T14:11:01;9.75;;;5.85;;
67162;SDS011;54092;53.088;8.850;2024-02-26T14:13:26;12.25;;;6.13;;
67162;SDS011;54092;53.088;8.850;2024-02-26T14:15:52;11.68;;;6.70;;
67162;SDS011;54092;53.088;8.850;2024-02-26T14:18:17;11.90;;;6.70;;
67162;SDS011;54092;53.088;8.850;2024-02-26T14:20:43;13.05;;;6.75;;
67162;SDS011;54092;53.088;8.850;2024-02-26T14:23:09;13.77;;;6.03;;
67162;SDS011;54092;53.088;8.850;2024-02-26T14:25:35;13.23;;;6.47;;
67162;SDS011;54092;53.088;8.850;2024-02-26T14:28:01;11.13;;;5.82;;
67162;SDS011;54092;53.088;8.850;2024-02-26T14:30:28;15.57;;;6.95;;
67162;SDS011;54092;53.088;8.850;2024-02-26T14:32:53;11.68;;;6.40;;